| Record Date MM/DD/YYYY | Record Julian Date NNN day of the year | Air Temperature Max (Degrees Fahrenheit F) | Time Max Air Temperature HH:MM:SS This is the time of max air temperature standard time. | Air Temperature Min (Degrees Fahrenheit F) | Time Min Air Temperature HH:MM:SS This is the time of min air temperature standard time. | Air Temperature Observed (Degrees Fahrenheit F) This is an instantaneous reading for air temperature at 7:00:00 standard time. | Relative Humidity Max (Percent) | Time Max Relative Humidity HH:MM:SS This is the time of max relative humidity standard time. | Relative Humidity Min (Percent) | Time Min Relative Humidity HH:MM:SS This is the time of min relative humidity standard time. | Relative Humidity Observed (Percent) This is an instantaneous reading at 7:00:00 standard time. | Precipitation (Inches n.nn) total rain fall that occurred for the day. | Pan Evaporation (Inches n.nn) total evaporation that occured for the day. | Wind Run (Miles) Wind travel for the day. | Wind Speed (Miles Per Hour) Resultant / Average speed for the day. | Wind Direction (Degrees) Resultant Direction for the day | Solar Radiation (Langley's) that occurred for the day. | Soil Temperature Max at 2 inch depth (Degrees Fahrenheit F) that occurred during the day. | Time Max Soil temperature at 2 inches HH:MM:SS This is the time of max 2 inch soil temperature standard time. | Soil Temperature Min at 2 inch depth (Degrees Fahrenheit F) that occurred during the day. | Time Min Soil temperature at 2 inches HH:MM:SS This is the time of min 2 inch soil temperature standard time. | Soil Temperature Observed at 2 inch depth (Degrees Fahrenheit F) This is an instantaneous reading 2 inch soil temperature at 7:00:00 standard time. | Soil Temperature Max at 4 inch depth (Degrees Fahrenheit F) that occurred during the day. | Time Max Soil temperature at 4 inches HH:MM:SS This is the time of max 4 inch soil temperature standard time. | Soil Temperature Min at 4 inch depth (Degrees Fahrenheit F) that occurred during the day. | Time Min Soil temperature at 4 inches HH:MM:SS This is the time of min 4 inch soil temperature standard time. | Soil Temperature Observed at 4 inch depth (Degrees Fahrenheit F) This is an instantaneous reading 4 inch soil temperature at 7:00:00 standard time. | DD50 Degree Days 50 Fahrenheit. | Adjusted DD50 Degree Days 50 Fahrenheit adjusted for latitude. | DD60 Degree Days 60 Fahrenheit. |
|---|---|---|---|---|---|---|---|---|---|---|---|---|---|---|---|---|---|---|---|---|---|---|---|---|---|---|---|---|---|---|
| 08/01/2026 | 213 | 94 | 14:17:00 | 70 | 0:00:00 | 82 | 87 | 23:59:05 | 49 | 15:38:03 | 80 | 0 | 182 | 7.6 | 298 | 517 | 91 | 16:09:02 | 85 | 6:52:02 | 85 | 90 | 16:42:00 | 86 | 8:07:05 | 86 | 32 | 27.17 | 22 | |
| 08/02/2026 | 214 | 83 | 16:14:02 | 69 | 2:14:03 | 73 | 92 | 23:59:04 | 66 | 11:26:05 | 87 | 0 | 87 | 3.6 | 350 | 318 | 86 | 16:38:03 | 83 | 23:59:04 | 83 | 87 | 0:00:00 | 84 | 7:23:02 | 84 | 26 | 27.14 | 16 | |
| 08/03/2026 | 215 | 89 | 13:42:03 | 67 | 5:20:01 | 76 | 96 | 5:42:05 | 54 | 16:05:03 | 89 | 0 | 70 | 2.9 | 37 | 569 | 89 | 16:13:02 | 81 | 6:32:05 | 81 | 88 | 16:50:00 | 82 | 6:50:04 | 82 | 28 | 27.11 | 18 | |
| 08/04/2026 | 216 | 91 | 11:43:05 | 67 | 5:25:03 | 76 | 96 | 5:32:04 | 36 | 12:56:01 | 87 | 0 | 65 | 2.7 | 53 | 587 | 89 | 15:35:04 | 81 | 6:38:05 | 81 | 88 | 16:34:01 | 82 | 6:56:01 | 82 | 29 | 27.08 | 19 | |
| 08/05/2026 | 217 | 97 | 11:57:02 | 66 | 5:01:00 | 75 | 95 | 5:04:02 | 36 | 11:30:01 | 85 | 0 | 50 | 2.1 | 64 | 578 | 91 | 15:44:05 | 81 | 6:45:02 | 81 | 89 | 16:55:05 | 82 | 7:11:01 | 82 | 31.5 | 27.04 | 21.5 | |
| 08/06/2026 | 218 | 98 | 15:07:01 | 69 | 4:38:02 | 79 | 93 | 4:58:01 | 40 | 11:47:05 | 82 | 0 | 79 | 3.3 | 208 | 573 | 91 | 16:03:05 | 82 | 6:33:02 | 82 | 89 | 17:07:01 | 83 | 7:15:00 | 83 | 33.5 | 27.01 | 23.5 | |
| 08/07/2026 | 219 | 95 | 12:59:00 | 72 | 5:20:02 | 79 | 97 | 5:41:00 | 47 | 15:42:04 | 91 | 0 | 108 | 4.5 | 218 | 539 | 90 | 13:58:04 | 83 | 6:39:01 | 84 | 89 | 17:32:00 | 84 | 7:02:02 | 84 | 33.5 | 26.98 | 23.5 | |
| 08/08/2026 | 220 | 97 | 16:10:04 | 73 | 5:23:04 | 80 | 94 | 5:54:02 | 46 | 16:17:01 | 84 | 0 | 76 | 3.2 | 257 | 510 | 91 | 16:30:02 | 84 | 6:03:04 | 84 | 89 | 17:30:04 | 84 | 8:08:00 | 84 | 35 | 26.95 | 25 | |
| 08/09/2026 | 221 | 97 | 15:34:05 | 72 | 5:14:03 | 81 | 96 | 5:21:05 | 49 | 13:11:01 | 82 | 0 | 88 | 3.7 | 227 | 561 | 91 | 15:23:01 | 84 | 6:15:02 | 84 | 90 | 17:18:00 | 84 | 8:24:00 | 84 | 34.5 | 26.91 | 24.5 | |
| 08/10/2026 | 222 | 98 | 15:07:03 | 74 | 5:28:04 | 82 | 94 | 5:32:00 | 49 | 15:05:02 | 82 | 0 | 86 | 3.6 | 222 | 482 | 92 | 15:41:05 | 85 | 6:20:01 | 85 | 90 | 16:05:01 | 85 | 7:45:03 | 85 | 36 | 26.88 | 26 | |
| 08/11/2026 | 223 | 95 | 15:20:02 | 74 | 5:21:00 | 80 | 95 | 5:42:03 | 52 | 17:26:01 | 89 | 0 | 130 | 5.4 | 231 | 536 | 91 | 15:54:00 | 85 | 6:26:05 | 85 | 89 | 16:58:03 | 85 | 8:33:03 | 85 | 34.5 | 26.85 | 24.5 | |
| 08/12/2026 | 224 | 98 | 14:44:00 | 77 | 2:19:05 | 82 | 90 | 5:24:00 | 43 | 16:38:02 | 84 | 0 | 135 | 5.6 | 237 | 591 | 92 | 15:30:02 | 85 | 6:30:04 | 85 | 90 | 17:04:01 | 85 | 7:57:01 | 85 | 37.5 | 26.81 | 27.5 | |
| 08/13/2026 | 225 | 99 | 14:12:05 | 77 | 5:13:05 | 82 | 90 | 5:23:01 | 45 | 14:52:02 | 85 | 0 | 135 | 5.6 | 237 | 603 | 92 | 16:06:03 | 85 | 6:04:04 | 85 | 91 | 17:27:02 | 86 | 8:23:00 | 86 | 38 | 26.78 | 28 | |
| 08/14/2026 | 226 | 99 | 16:12:03 | 76 | 5:05:04 | 81 | 90 | 5:22:00 | 35 | 16:55:00 | 86 | 0 | 115 | 4.8 | 240 | 590 | 93 | 16:15:02 | 85 | 6:35:00 | 85 | 91 | 17:14:01 | 86 | 8:10:05 | 86 | 37.5 | 26.74 | 27.5 | |
| 08/15/2026 | 227 | 100 | 16:04:04 | 72 | 3:07:01 | 81 | 90 | 2:25:01 | 42 | 16:20:00 | 85 | 0 | 84 | 3.5 | 246 | 600 | 94 | 16:00:02 | 85 | 6:21:00 | 85 | 92 | 17:00:05 | 85 | 8:03:02 | 85 | 36 | 26.71 | 26 | |
| 08/16/2026 | 228 | 103 | 14:25:04 | 77 | 5:31:02 | 85 | 89 | 5:33:04 | 40 | 14:26:00 | 77 | 0 | 76 | 3.2 | 262 | 510 | 93 | 16:24:05 | 86 | 6:35:03 | 86 | 92 | 16:42:03 | 86 | 7:58:05 | 87 | 40 | 26.68 | 30 | |
| 08/17/2026 | 229 | 101 | 15:03:02 | 79 | 23:32:03 | 84 | 82 | 23:34:03 | 35 | 15:04:01 | 74 | 0 | 112 | 4.7 | 305 | 501 | 93 | 16:25:05 | 86 | 6:20:02 | 86 | 91 | 17:19:00 | 87 | 8:15:03 | 87 | 40 | 26.64 | 30 | |
| 08/18/2026 | 230 | 99 | 15:42:04 | 74 | 3:58:01 | 79 | 95 | 4:36:03 | 40 | 15:41:03 | 89 | 0 | 69 | 2.9 | 323 | 472 | 92 | 16:37:01 | 86 | 6:51:00 | 86 | 91 | 17:50:00 | 86 | 8:24:02 | 86 | 36.5 | 26.61 | 26.5 | |
| 08/19/2026 | 231 | 100 | 15:36:00 | 76 | 3:23:04 | 83 | 88 | 3:24:02 | 42 | 16:47:02 | 82 | 0 | 104 | 4.3 | 244 | 546 | 94 | 16:07:04 | 86 | 6:51:01 | 86 | 92 | 17:31:05 | 86 | 7:50:05 | 86 | 38 | 26.57 | 28 | |
| 08/20/2026 | 232 | 103 | 14:18:00 | 77 | 23:59:02 | 83 | 89 | 23:45:00 | 44 | 14:20:00 | 82 | 0.09 | 106 | 4.4 | 272 | 456 | 94 | 14:47:03 | 86 | 6:18:02 | 86 | 92 | 15:59:01 | 87 | 8:17:02 | 87 | 40 | 26.54 | 30 | |
| 08/21/2026 | 233 | 95 | 13:45:01 | 73 | 5:35:00 | 79 | 94 | 4:46:05 | 51 | 17:26:02 | 84 | 0 | 84 | 3.5 | 46 | 528 | 91 | 14:08:05 | 85 | 6:42:00 | 85 | 89 | 15:37:05 | 86 | 8:15:02 | 86 | 34 | 26.5 | 24 | |
| 08/22/2026 | 234 | 102 | 14:57:02 | 71 | 4:53:04 | 80 | 97 | 5:47:01 | 40 | 15:21:04 | 83 | 0.31 | 76 | 3.1 | 328 | 533 | 92 | 15:50:01 | 83 | 6:46:05 | 83 | 90 | 16:46:02 | 84 | 7:15:05 | 84 | 36.5 | 26.47 | 26.5 | |
| 08/23/2026 | 235 | 95 | 13:48:00 | 73 | 5:47:02 | 76 | 96 | 6:04:02 | 52 | 13:48:03 | 93 | 0.03 | 89 | 3.7 | 55 | 565 | 92 | 15:38:00 | 83 | 6:32:00 | 83 | 90 | 16:13:02 | 84 | 7:51:03 | 84 | 34 | 26.43 | 24 | |
| 08/24/2026 | 236 | 80 | 16:10:05 | 73 | 11:23:05 | 74 | 97 | 10:19:04 | 79 | 3:33:00 | 92 | 0.5 | 96 | 4.0 | 277 | 129 | 85 | 0:00:00 | 81 | 12:23:02 | 83 | 86 | 0:00:00 | 82 | 12:52:05 | 84 | 26.5 | 26.4 | 16.5 | |
| 08/25/2026 | 237 | 96 | 14:58:02 | 72 | 2:39:04 | 75 | 99 | 6:02:03 | 52 | 14:59:00 | 98 | 0 | 66 | 2.8 | 220 | 402 | 87 | 16:47:03 | 81 | 4:00:00 | 81 | 87 | 17:24:01 | 81 | 7:15:05 | 81 | 34 | 26.36 | 24 | |
| 08/26/2026 | 238 | 96 | 12:21:05 | 72 | 22:28:02 | 79 | 94 | 2:46:01 | 47 | 14:50:01 | 91 | 0.22 | 98 | 4.1 | 271 | 515 | 89 | 15:39:03 | 82 | 6:54:02 | 82 | 88 | 16:40:01 | 82 | 7:18:01 | 83 | 34 | 26.33 | 24 | |
| 08/27/2026 | 239 | 92 | 15:13:04 | 72 | 2:48:01 | 73 | 97 | 6:40:00 | 53 | 16:55:02 | 96 | 0 | 68 | 2.9 | 2 | 498 | 88 | 14:59:04 | 81 | 6:44:00 | 81 | 87 | 16:03:00 | 82 | 7:11:00 | 82 | 32 | 26.29 | 22 | |
| 08/28/2026 | 240 | 93 | 13:47:03 | 71 | 23:52:02 | 76 | 96 | 4:22:05 | 45 | 16:38:01 | 93 | 0 | 80 | 3.3 | 49 | 473 | 88 | 14:16:00 | 82 | 7:07:05 | 82 | 87 | 15:21:01 | 83 | 7:42:05 | 83 | 32 | 26.26 | 22 | |
| 08/29/2026 | 241 | 97 | 14:51:01 | 66 | 5:26:02 | 73 | 94 | 5:47:05 | 37 | 16:39:04 | 83 | 0 | 61 | 2.6 | 66 | 544 | 87 | 15:15:00 | 79 | 6:48:00 | 79 | 86 | 16:24:04 | 80 | 7:28:01 | 80 | 31.5 | 26.22 | 21.5 | |
| 08/30/2026 | 242 | 97 | 15:10:04 | 68 | 4:48:01 | 77 | 93 | 4:37:02 | 42 | 10:57:02 | 77 | 0 | 62 | 2.6 | 145 | 488 | 87 | 14:29:01 | 79 | 7:08:04 | 79 | 86 | 16:56:04 | 80 | 7:30:00 | 80 | 32.5 | 26.19 | 22.5 | |
| Average | 95.97 | 72.3 | 78.83 | 93.17 | 46.27 | 85.73 | 0.04 | 91.23 | 510.47 | 90.5 | 83.33 | 83.43 | 89.2 | 83.97 | 84.1 | 34.13 | 26.69 | 24.13 | ||||||||||||
| Total | 1.15 | 1024 | 800.65 | 724 |